Time;durP1;ratioP1;P1;durP2;ratioP2;P2;SDS_P1;SDS_P2;PMS_P1;PMS_P2;Temp;Humidity;BMP_temperature;BMP_pressure;BME280_temperature;BME280_humidity;BME280_pressure;Samples;Min_cycle;Max_cycle;Signal;HPM_P1;HPM_P2
2023/12/20 00:01:22;;;;;;;13.18;1.83;;;8.50;99.90;;;;;;5039649;28;20042;-72
2023/12/20 00:03:48;;;;;;;5.78;1.40;;;8.50;99.90;;;;;;5036867;28;20081;-73
2023/12/20 00:06:14;;;;;;;8.85;0.98;;;8.50;99.90;;;;;;5033115;28;20475;-72
2023/12/20 00:08:40;;;;;;;10.88;1.50;;;8.50;99.90;;;;;;5035145;28;20053;-72
2023/12/20 00:11:05;;;;;;;11.25;1.60;;;8.50;99.90;;;;;;5033591;28;20120;-73
2023/12/20 00:13:31;;;;;;;14.65;1.15;;;8.40;99.90;;;;;;5034791;28;20041;-73
2023/12/20 00:15:56;;;;;;;15.10;1.73;;;8.40;99.90;;;;;;5034319;28;20043;-71
2023/12/20 00:18:23;;;;;;;13.68;2.17;;;8.40;99.90;;;;;;5033061;28;20037;-74
2023/12/20 00:20:48;;;;;;;12.77;1.67;;;8.30;99.90;;;;;;5033822;28;20082;-74
2023/12/20 00:23:14;;;;;;;18.70;1.55;;;8.30;99.90;;;;;;5033559;28;20433;-74
2023/12/20 00:25:39;;;;;;;14.20;1.80;;;8.30;99.90;;;;;;5033598;28;20566;-74
2023/12/20 00:28:06;;;;;;;11.70;1.42;;;8.30;99.90;;;;;;5033623;28;20083;-72
2023/12/20 00:30:31;;;;;;;13.52;1.90;;;8.20;99.90;;;;;;5034169;28;20026;-72
2023/12/20 00:32:57;;;;;;;13.00;1.58;;;8.20;99.90;;;;;;5032858;28;20426;-73
2023/12/20 00:35:22;;;;;;;16.60;2.22;;;8.20;99.90;;;;;;5033989;28;20029;-73
2023/12/20 00:37:48;;;;;;;15.25;1.52;;;8.20;99.90;;;;;;5033824;28;20411;-72
2023/12/20 00:40:14;;;;;;;10.60;1.60;;;8.10;99.90;;;;;;5032245;28;20034;-73
2023/12/20 00:42:39;;;;;;;21.20;2.28;;;8.10;99.90;;;;;;5033271;28;20037;-73
2023/12/20 00:45:05;;;;;;;20.40;1.85;;;8.00;99.90;;;;;;5033350;28;20049;-73
2023/12/20 00:47:31;;;;;;;14.00;1.83;;;8.00;99.90;;;;;;5032969;28;20112;-73
2023/12/20 00:49:58;;;;;;;16.27;2.38;;;8.00;99.90;;;;;;5033255;28;20378;-73
2023/12/20 00:52:24;;;;;;;13.13;2.28;;;8.00;99.90;;;;;;5033289;28;20454;-77
2023/12/20 00:54:50;;;;;;;11.88;2.03;;;8.10;99.90;;;;;;5033224;28;20065;-73
2023/12/20 00:57:16;;;;;;;11.27;1.60;;;8.00;99.90;;;;;;5033091;28;20061;-74
2023/12/20 00:59:41;;;;;;;12.10;1.63;;;8.00;99.90;;;;;;5033131;28;20141;-73
2023/12/20 01:02:07;;;;;;;10.88;1.52;;;8.00;99.90;;;;;;5032850;28;20034;-72
2023/12/20 01:04:33;;;;;;;16.52;1.95;;;8.00;99.90;;;;;;5032368;28;20053;-72
2023/12/20 01:06:59;;;;;;;15.25;2.20;;;7.90;99.90;;;;;;5033252;28;20103;-72
2023/12/20 01:09:26;;;;;;;17.17;2.10;;;7.90;99.90;;;;;;5032933;28;20083;-73
2023/12/20 01:11:55;;;;;;;16.77;2.15;;;7.80;99.90;;;;;;5031372;28;20025;-80
2023/12/20 01:14:21;;;;;;;19.38;1.95;;;7.80;99.90;;;;;;5033030;28;20052;-78
2023/12/20 01:16:47;;;;;;;15.82;2.63;;;7.80;99.90;;;;;;5032960;28;20033;-78
2023/12/20 01:19:13;;;;;;;22.02;2.28;;;7.80;99.90;;;;;;5032152;28;20489;-78
2023/12/20 01:21:40;;;;;;;12.52;2.10;;;7.80;99.90;;;;;;5032987;28;20439;-79
2023/12/20 01:24:05;;;;;;;19.42;3.13;;;7.80;99.90;;;;;;5032905;28;20040;-79
2023/12/20 01:26:31;;;;;;;31.65;3.30;;;7.80;99.90;;;;;;5032915;28;20116;-79
2023/12/20 01:28:57;;;;;;;14.75;2.72;;;7.80;99.90;;;;;;5032470;28;20033;-78
2023/12/20 01:31:22;;;;;;;18.00;3.83;;;7.80;99.90;;;;;;5031342;28;20073;-81
2023/12/20 01:33:48;;;;;;;19.13;2.70;;;7.70;99.90;;;;;;5032809;28;20041;-79
2023/12/20 01:36:14;;;;;;;16.38;3.22;;;7.70;99.90;;;;;;5032701;28;20029;-80
2023/12/20 01:38:40;;;;;;;14.88;2.58;;;7.70;99.90;;;;;;5032712;28;20037;-78
2023/12/20 01:41:05;;;;;;;20.52;3.08;;;7.70;99.90;;;;;;5031574;28;20033;-78
2023/12/20 01:43:31;;;;;;;20.55;2.38;;;7.70;99.90;;;;;;5032677;28;20038;-78
2023/12/20 01:45:58;;;;;;;24.27;3.25;;;7.60;99.90;;;;;;5031817;28;20034;-78
2023/12/20 01:48:24;;;;;;;21.38;2.45;;;7.60;99.90;;;;;;5032607;28;20116;-78
2023/12/20 01:50:51;;;;;;;17.52;2.38;;;7.60;99.90;;;;;;5032396;28;20037;-78
2023/12/20 01:53:19;;;;;;;14.65;2.72;;;7.60;99.90;;;;;;5031252;28;20115;-78
2023/12/20 01:55:45;;;;;;;16.25;2.78;;;7.50;99.90;;;;;;5032223;28;20029;-79
2023/12/20 01:58:11;;;;;;;16.90;2.70;;;7.50;99.90;;;;;;5031668;28;20051;-78
2023/12/20 02:00:37;;;;;;;17.00;3.30;;;7.50;99.90;;;;;;5032404;28;20387;-79
2023/12/20 02:03:03;;;;;;;17.67;3.45;;;7.50;99.90;;;;;;5032260;28;20029;-79
2023/12/20 02:05:33;;;;;;;16.83;2.25;;;7.50;99.90;;;;;;5032444;28;20030;-79
2023/12/20 02:07:59;;;;;;;17.50;2.38;;;7.50;99.90;;;;;;5031197;28;20045;-80
2023/12/20 02:10:25;;;;;;;15.38;2.33;;;7.50;99.90;;;;;;5032409;28;20055;-80
2023/12/20 02:12:51;;;;;;;16.70;2.50;;;7.50;99.90;;;;;;5032251;28;20021;-78
2023/12/20 02:15:17;;;;;;;18.75;2.60;;;7.40;99.90;;;;;;5035249;28;20512;-79
2023/12/20 02:17:43;;;;;;;18.52;2.25;;;7.40;99.90;;;;;;5037184;28;20076;-79
2023/12/20 02:20:09;;;;;;;15.68;2.72;;;7.40;99.90;;;;;;5037630;28;20052;-79
2023/12/20 02:22:35;;;;;;;20.15;2.55;;;7.40;99.90;;;;;;5035943;28;20033;-78
2023/12/20 02:25:01;;;;;;;17.20;2.47;;;7.50;99.90;;;;;;5034726;28;20037;-79
2023/12/20 02:27:28;;;;;;;14.82;2.30;;;7.40;99.90;;;;;;5036833;28;20029;-78
2023/12/20 02:29:54;;;;;;;13.13;1.95;;;7.50;99.90;;;;;;5036508;28;20029;-79
2023/12/20 02:32:21;;;;;;;14.43;2.53;;;7.50;99.90;;;;;;5034794;28;20033;-79
2023/12/20 02:34:49;;;;;;;15.43;2.25;;;7.60;99.90;;;;;;5036123;28;20038;-79
2023/12/20 02:37:15;;;;;;;18.98;2.47;;;7.60;99.90;;;;;;5035948;28;20479;-79
2023/12/20 02:39:41;;;;;;;14.18;1.95;;;7.60;99.90;;;;;;5036039;28;20022;-79
2023/12/20 02:42:07;;;;;;;14.77;1.85;;;7.50;99.90;;;;;;5034398;28;20101;-78
2023/12/20 02:44:32;;;;;;;13.50;1.83;;;7.50;99.90;;;;;;5035753;28;20033;-79
2023/12/20 02:46:58;;;;;;;17.05;1.63;;;7.50;99.90;;;;;;5035913;28;20037;-79
2023/12/20 02:49:24;;;;;;;15.50;1.88;;;7.60;99.90;;;;;;5034058;28;20117;-79
2023/12/20 02:51:49;;;;;;;15.73;2.05;;;7.60;99.90;;;;;;5035606;28;20065;-79
2023/12/20 02:54:15;;;;;;;14.90;1.80;;;7.60;99.90;;;;;;5035866;28;20041;-80
2023/12/20 02:56:40;;;;;;;16.27;2.33;;;7.60;99.90;;;;;;5034943;28;20076;-79
2023/12/20 02:59:08;;;;;;;23.08;2.63;;;7.60;99.90;;;;;;5034113;28;20073;-79
2023/12/20 03:01:34;;;;;;;15.40;2.08;;;7.60;99.90;;;;;;5034241;28;20036;-79
2023/12/20 03:04:00;;;;;;;19.63;1.80;;;7.60;99.90;;;;;;5035310;28;20445;-79
2023/12/20 03:06:26;;;;;;;22.10;2.22;;;7.60;99.90;;;;;;5033875;28;20109;-79
2023/12/20 03:08:52;;;;;;;18.00;2.72;;;7.60;99.90;;;;;;5033889;28;20061;-79
2023/12/20 03:11:17;;;;;;;18.35;2.22;;;7.60;99.90;;;;;;5035056;28;20030;-79
2023/12/20 03:13:43;;;;;;;19.63;2.75;;;7.60;99.90;;;;;;5035213;28;20114;-79
2023/12/20 03:16:13;;;;;;;15.05;2.53;;;7.60;99.90;;;;;;5034919;28;20025;-80
2023/12/20 03:18:39;;;;;;;19.20;2.45;;;7.60;99.90;;;;;;5034498;28;20030;-80
2023/12/20 03:21:05;;;;;;;14.63;1.75;;;7.50;99.90;;;;;;5035211;28;20159;-80
2023/12/20 03:23:32;;;;;;;17.35;2.30;;;7.50;99.90;;;;;;5034310;28;20029;-81
2023/12/20 03:25:58;;;;;;;14.57;2.08;;;7.50;99.90;;;;;;5034675;28;20037;-80
2023/12/20 03:28:24;;;;;;;15.00;1.98;;;7.50;99.90;;;;;;5033579;28;20025;-80
2023/12/20 03:30:49;;;;;;;20.02;2.95;;;7.50;99.90;;;;;;5034974;28;20033;-78
2023/12/20 03:33:15;;;;;;;21.02;2.63;;;7.50;99.90;;;;;;5034958;28;20041;-77
2023/12/20 03:35:41;;;;;;;21.58;3.22;;;7.40;99.90;;;;;;5035235;28;20068;-78
2023/12/20 03:38:07;;;;;;;21.85;3.65;;;7.40;99.90;;;;;;5033412;28;20043;-78
2023/12/20 03:40:32;;;;;;;19.15;2.50;;;7.40;99.90;;;;;;5034731;28;20025;-78
2023/12/20 03:42:58;;;;;;;18.08;2.95;;;7.40;99.90;;;;;;5034734;28;20103;-78
2023/12/20 03:45:24;;;;;;;18.00;2.67;;;7.30;99.90;;;;;;5034770;28;20104;-78
2023/12/20 03:47:54;;;;;;;23.17;3.20;;;7.40;99.90;;;;;;5034774;28;20026;-81
2023/12/20 03:50:21;;;;;;;23.33;3.15;;;7.40;99.90;;;;;;5035721;28;20033;-82
2023/12/20 03:52:47;;;;;;;19.63;3.17;;;7.40;99.90;;;;;;5035130;28;20038;-81
2023/12/20 03:55:13;;;;;;;17.95;3.33;;;7.50;99.90;;;;;;5035015;28;20040;-81
2023/12/20 03:57:39;;;;;;;16.98;2.83;;;7.50;99.90;;;;;;5017257;28;20123;-81
2023/12/20 04:00:10;;;;;;;17.33;2.78;;;7.50;99.90;;;;;;5034434;28;20501;-80
2023/12/20 04:02:39;;;;;;;18.92;2.92;;;7.50;99.90;;;;;;5033336;28;20025;-81
2023/12/20 04:05:05;;;;;;;12.20;2.70;;;7.50;99.90;;;;;;5033107;28;20053;-82
2023/12/20 04:07:31;;;;;;;14.77;2.65;;;7.50;99.90;;;;;;5033956;28;20037;-82
2023/12/20 04:09:56;;;;;;;27.00;2.65;;;7.50;99.90;;;;;;5036683;28;20048;-82
2023/12/20 04:12:22;;;;;;;25.77;3.20;;;7.50;99.90;;;;;;5037449;28;20071;-82
2023/12/20 04:14:48;;;;;;;16.60;2.60;;;7.40;99.90;;;;;;5037347;28;20095;-84
2023/12/20 04:17:15;;;;;;;22.55;2.78;;;7.50;99.90;;;;;;5017373;28;20033;-81
2023/12/20 04:19:41;;;;;;;19.02;3.03;;;7.50;99.90;;;;;;5034193;28;20029;-80
2023/12/20 04:22:07;;;;;;;23.98;2.83;;;7.60;99.90;;;;;;5034291;28;20029;-81
2023/12/20 04:24:33;;;;;;;20.67;2.90;;;7.50;99.90;;;;;;5034027;28;20426;-79
2023/12/20 04:26:58;;;;;;;16.08;2.22;;;7.50;99.90;;;;;;5033923;28;20467;-80
2023/12/20 04:29:24;;;;;;;23.92;2.92;;;7.50;99.90;;;;;;5034111;28;20037;-80
2023/12/20 04:31:51;;;;;;;19.40;2.53;;;7.60;99.90;;;;;;5032435;28;20041;-80
2023/12/20 04:34:17;;;;;;;25.85;2.90;;;7.50;99.90;;;;;;5032682;28;20029;-80
2023/12/20 04:36:43;;;;;;;27.23;3.00;;;7.60;99.90;;;;;;5033201;28;20053;-80
2023/12/20 04:39:09;;;;;;;21.13;2.20;;;7.50;99.90;;;;;;5033302;28;20056;-80
2023/12/20 04:41:35;;;;;;;18.95;2.20;;;7.50;99.90;;;;;;5032755;28;20107;-80
2023/12/20 04:44:00;;;;;;;16.50;2.70;;;7.50;99.90;;;;;;5016244;28;20049;-81
2023/12/20 04:46:26;;;;;;;18.20;2.65;;;7.50;99.90;;;;;;5032259;28;20067;-80
2023/12/20 04:48:52;;;;;;;20.35;3.67;;;7.50;99.90;;;;;;5032164;28;20030;-80
2023/12/20 04:51:18;;;;;;;25.80;3.13;;;7.60;99.90;;;;;;5033572;28;20021;-80
2023/12/20 04:53:43;;;;;;;28.60;3.72;;;7.60;99.90;;;;;;5033937;28;20419;-80
2023/12/20 04:56:09;;;;;;;21.63;2.28;;;7.60;99.90;;;;;;5032380;28;20456;-80
2023/12/20 04:58:35;;;;;;;22.65;2.20;;;7.60;99.90;;;;;;5032086;28;20040;-81
2023/12/20 05:01:01;;;;;;;23.75;2.97;;;7.70;99.90;;;;;;5033466;28;20025;-80
2023/12/20 05:03:26;;;;;;;20.85;2.47;;;7.70;99.90;;;;;;5032707;28;20057;-80
2023/12/20 05:05:52;;;;;;;21.05;2.75;;;7.70;99.90;;;;;;5033414;28;20101;-80
2023/12/20 05:08:17;;;;;;;21.17;3.08;;;7.70;99.90;;;;;;5032230;28;20159;-79
2023/12/20 05:10:43;;;;;;;22.63;2.80;;;7.70;99.90;;;;;;5033587;28;20460;-80
2023/12/20 05:13:09;;;;;;;24.35;2.60;;;7.70;99.90;;;;;;5033024;28;20458;-80
2023/12/20 05:15:34;;;;;;;22.48;2.55;;;7.70;99.90;;;;;;5032918;28;20033;-80
2023/12/20 05:18:00;;;;;;;21.05;2.53;;;7.70;99.90;;;;;;5032974;28;20025;-80
2023/12/20 05:20:26;;;;;;;19.25;2.97;;;7.70;99.90;;;;;;5032958;28;20034;-80
2023/12/20 05:22:51;;;;;;;17.83;2.25;;;7.80;99.90;;;;;;5031359;28;20037;-79
2023/12/20 05:25:17;;;;;;;25.85;4.05;;;7.80;99.90;;;;;;5031896;28;20045;-80
2023/12/20 05:27:43;;;;;;;25.42;2.63;;;7.70;99.90;;;;;;5032867;28;20061;-80
2023/12/20 05:30:09;;;;;;;22.52;2.83;;;7.80;99.90;;;;;;5032648;28;20048;-80
2023/12/20 05:32:34;;;;;;;23.27;2.75;;;7.70;99.90;;;;;;5014923;28;20025;-80
2023/12/20 05:35:00;;;;;;;21.60;3.38;;;7.80;99.90;;;;;;5031788;28;20032;-80
2023/12/20 05:37:25;;;;;;;23.77;2.90;;;7.80;99.90;;;;;;5032256;28;20072;-80
2023/12/20 05:39:51;;;;;;;22.75;2.45;;;7.80;99.90;;;;;;5032723;28;20416;-80
2023/12/20 05:42:17;;;;;;;23.17;2.65;;;7.80;99.90;;;;;;5031116;28;20068;-80
2023/12/20 05:44:42;;;;;;;22.35;2.85;;;7.80;99.90;;;;;;5032234;28;20033;-80
2023/12/20 05:47:08;;;;;;;23.08;2.78;;;7.80;99.90;;;;;;5032262;28;20144;-81
2023/12/20 05:49:34;;;;;;;31.80;4.05;;;7.80;99.90;;;;;;5032755;28;20033;-81
2023/12/20 05:51:59;;;;;;;23.15;2.40;;;7.90;99.90;;;;;;5032297;28;20033;-81
2023/12/20 05:54:25;;;;;;;24.50;4.03;;;7.90;99.90;;;;;;5032687;28;20041;-81
2023/12/20 05:56:50;;;;;;;19.38;3.15;;;7.90;99.90;;;;;;5031426;28;20037;-81
2023/12/20 05:59:16;;;;;;;28.92;3.10;;;7.90;99.90;;;;;;5032540;28;20026;-80
2023/12/20 06:01:42;;;;;;;24.73;3.22;;;7.90;99.90;;;;;;5032183;28;20108;-80
2023/12/20 06:04:07;;;;;;;19.30;2.47;;;7.90;99.90;;;;;;5014230;28;20148;-80
2023/12/20 06:06:33;;;;;;;19.50;2.92;;;8.00;99.90;;;;;;5031421;28;20321;-79
2023/12/20 06:08:59;;;;;;;24.20;2.65;;;8.00;99.90;;;;;;5031108;28;20053;-79
2023/12/20 06:11:24;;;;;;;23.55;3.22;;;8.00;99.90;;;;;;5030928;28;20033;-80
2023/12/20 06:13:52;;;;;;;19.42;2.45;;;8.00;99.90;;;;;;5032435;28;20068;-80
2023/12/20 06:16:19;;;;;;;23.45;2.58;;;8.00;99.90;;;;;;5034130;28;20080;-81
2023/12/20 06:18:44;;;;;;;24.23;2.88;;;8.00;99.90;;;;;;5017204;28;20068;-81
2023/12/20 06:21:12;;;;;;;20.77;3.10;;;8.00;99.90;;;;;;5032825;28;20061;-82
2023/12/20 06:23:38;;;;;;;24.15;2.90;;;8.00;99.90;;;;;;5036591;28;20036;-82
2023/12/20 06:26:04;;;;;;;17.52;2.72;;;8.00;99.90;;;;;;5035654;28;20034;-82
2023/12/20 06:28:30;;;;;;;28.25;4.07;;;8.00;99.90;;;;;;5037167;28;20516;-81
2023/12/20 06:30:56;;;;;;;23.73;3.35;;;8.00;99.90;;;;;;5033978;28;20052;-81
2023/12/20 06:33:22;;;;;;;19.25;2.63;;;8.00;99.90;;;;;;5020632;28;20471;-82
2023/12/20 06:35:49;;;;;;;24.77;3.28;;;8.00;99.90;;;;;;5038720;28;20028;-82
2023/12/20 06:38:14;;;;;;;18.80;2.80;;;8.10;99.90;;;;;;5033250;28;20034;-83
2023/12/20 06:40:40;;;;;;;20.88;3.03;;;8.00;99.90;;;;;;5033486;28;20486;-83
2023/12/20 06:43:06;;;;;;;25.05;3.67;;;8.00;99.90;;;;;;5033533;28;20033;-83
2023/12/20 06:45:32;;;;;;;22.35;3.53;;;8.00;99.90;;;;;;5036424;28;20466;-82
2023/12/20 06:47:58;;;;;;;23.70;3.15;;;8.00;99.90;;;;;;5033843;28;20120;-85
2023/12/20 06:50:24;;;;;;;20.17;2.67;;;8.00;99.90;;;;;;5030725;28;20125;-83
2023/12/20 06:52:49;;;;;;;24.05;2.70;;;8.00;99.90;;;;;;5031411;28;20041;-84
2023/12/20 06:55:15;;;;;;;17.65;2.92;;;8.00;99.90;;;;;;5032406;28;20080;-83
2023/12/20 06:57:41;;;;;;;22.95;2.80;;;8.00;99.90;;;;;;5036411;28;20041;-82
2023/12/20 07:00:08;;;;;;;22.60;2.72;;;8.00;99.90;;;;;;5033545;28;20026;-81
2023/12/20 07:02:34;;;;;;;18.70;2.53;;;8.10;99.90;;;;;;5034971;28;20475;-85
2023/12/20 07:05:00;;;;;;;25.95;2.95;;;8.00;99.90;;;;;;5035989;28;20052;-81
2023/12/20 07:07:26;;;;;;;14.63;2.33;;;8.00;99.90;;;;;;5034832;28;20049;-78
2023/12/20 07:09:51;;;;;;;20.20;2.60;;;8.00;99.90;;;;;;5034822;28;20401;-83
2023/12/20 07:12:19;;;;;;;20.35;2.83;;;8.00;99.90;;;;;;5034144;28;20052;-82
2023/12/20 07:14:45;;;;;;;20.45;2.30;;;8.00;99.90;;;;;;5035672;28;20120;-80
2023/12/20 07:17:13;;;;;;;28.35;3.22;;;8.00;99.90;;;;;;5034120;28;20471;-79
2023/12/20 07:19:39;;;;;;;20.33;2.40;;;8.00;99.90;;;;;;5034098;28;20033;-81
2023/12/20 07:22:06;;;;;;;27.83;4.05;;;8.00;99.90;;;;;;5033775;28;20145;-82
2023/12/20 07:24:32;;;;;;;19.85;3.17;;;8.10;99.90;;;;;;5034740;28;20519;-82
2023/12/20 07:26:59;;;;;;;24.85;3.10;;;8.00;99.90;;;;;;5033959;28;20026;-81
2023/12/20 07:29:25;;;;;;;24.10;2.70;;;8.10;99.90;;;;;;5035013;28;20036;-82
2023/12/20 07:31:51;;;;;;;17.60;2.50;;;8.10;99.90;;;;;;5035506;28;20033;-83
2023/12/20 07:34:17;;;;;;;26.35;2.97;;;8.10;99.90;;;;;;5035541;28;20068;-72
2023/12/20 07:36:43;;;;;;;24.80;2.72;;;8.10;99.90;;;;;;5035119;28;20065;-75
2023/12/20 07:39:09;;;;;;;26.00;2.72;;;8.10;99.90;;;;;;5034340;28;20361;-75
2023/12/20 07:41:35;;;;;;;18.27;2.35;;;8.10;99.90;;;;;;5034520;28;20033;-74
2023/12/20 07:44:01;;;;;;;18.00;2.70;;;8.10;99.90;;;;;;5033376;28;20397;-75
2023/12/20 07:46:26;;;;;;;21.95;2.83;;;8.10;99.90;;;;;;5034854;28;20522;-73
2023/12/20 07:48:52;;;;;;;22.73;4.57;;;8.10;99.90;;;;;;5016754;28;20029;-73
2023/12/20 07:51:18;;;;;;;23.35;3.28;;;8.10;99.90;;;;;;5034972;28;20088;-75
2023/12/20 07:53:43;;;;;;;26.55;3.80;;;8.10;99.90;;;;;;5033662;28;20380;-75
2023/12/20 07:56:19;;;;;;;23.02;2.75;;;8.10;99.90;;;;;;5034357;28;20055;-73
2023/12/20 07:58:45;;;;;;;21.48;3.90;;;8.20;99.90;;;;;;5032800;28;20041;-74
2023/12/20 08:01:12;;;;;;;21.73;2.65;;;8.20;99.90;;;;;;5016564;28;20041;-74
2023/12/20 08:03:38;;;;;;;23.65;2.60;;;8.20;99.90;;;;;;5033647;28;20143;-74
2023/12/20 08:06:04;;;;;;;22.77;3.10;;;8.20;99.90;;;;;;5034212;28;20156;-75
2023/12/20 08:08:29;;;;;;;22.33;2.55;;;8.20;99.90;;;;;;5034295;28;20030;-81
2023/12/20 08:10:57;;;;;;;18.00;2.25;;;8.30;99.90;;;;;;5033789;28;20321;-77
2023/12/20 08:13:25;;;;;;;18.77;2.80;;;8.30;99.90;;;;;;5034311;28;20064;-78
2023/12/20 08:15:51;;;;;;;23.33;2.80;;;8.30;99.90;;;;;;5033089;28;20033;-78
2023/12/20 08:18:17;;;;;;;22.52;2.30;;;8.40;99.90;;;;;;5032946;28;20032;-78
2023/12/20 08:20:43;;;;;;;20.95;3.45;;;8.40;99.90;;;;;;5033707;28;20036;-78
2023/12/20 08:23:08;;;;;;;19.60;2.72;;;8.40;99.90;;;;;;5034024;28;20037;-81
2023/12/20 08:25:34;;;;;;;19.40;2.70;;;8.40;99.90;;;;;;5033900;28;20030;-79
2023/12/20 08:28:00;;;;;;;20.90;2.63;;;8.40;99.90;;;;;;5032885;28;20109;-81
2023/12/20 08:30:26;;;;;;;23.05;3.17;;;8.40;99.90;;;;;;5033922;28;20084;-80
2023/12/20 08:32:52;;;;;;;27.33;3.67;;;8.40;99.90;;;;;;5034208;28;20029;-80
2023/12/20 08:35:18;;;;;;;29.65;3.45;;;8.40;99.90;;;;;;5032959;28;20034;-79
2023/12/20 08:37:44;;;;;;;21.83;2.28;;;8.40;99.90;;;;;;5035168;28;20037;-79
2023/12/20 08:40:10;;;;;;;15.70;2.65;;;8.40;99.90;;;;;;5033669;28;20037;-81
2023/12/20 08:42:36;;;;;;;19.65;2.83;;;8.40;99.90;;;;;;5033617;28;20080;-78
2023/12/20 08:45:04;;;;;;;25.52;3.20;;;8.40;99.90;;;;;;5033616;28;20428;-80
2023/12/20 08:47:29;;;;;;;24.60;3.03;;;8.50;99.90;;;;;;5033312;28;20140;-79
2023/12/20 08:49:56;;;;;;;24.92;2.72;;;8.40;99.90;;;;;;5015622;28;20471;-79
2023/12/20 08:52:27;;;;;;;18.88;2.42;;;8.40;99.90;;;;;;5032413;28;20038;-80
2023/12/20 08:54:53;;;;;;;27.48;3.40;;;8.40;99.90;;;;;;5033456;28;20494;-81
2023/12/20 08:57:23;;;;;;;26.92;2.88;;;8.50;99.90;;;;;;5033376;28;20076;-80
2023/12/20 08:59:52;;;;;;;23.40;3.60;;;8.50;99.90;;;;;;5033235;28;20022;-75
2023/12/20 09:02:18;;;;;;;17.80;2.58;;;8.50;99.90;;;;;;5033609;28;20040;-74
2023/12/20 09:04:43;;;;;;;18.98;2.58;;;8.40;99.90;;;;;;5032749;28;20552;-74
2023/12/20 09:07:26;;;;;;;24.15;2.97;;;8.40;99.90;;;;;;5031749;28;20160;-74
2023/12/20 09:09:52;;;;;;;20.67;2.70;;;8.40;99.90;;;;;;5033215;28;20057;-74
2023/12/20 09:12:21;;;;;;;30.65;3.28;;;8.50;99.90;;;;;;5032964;28;20109;-73
2023/12/20 09:14:48;;;;;;;19.55;2.78;;;8.50;99.90;;;;;;5032797;28;20128;-72
2023/12/20 09:17:15;;;;;;;22.17;2.38;;;8.50;99.90;;;;;;5033113;28;20036;-72
2023/12/20 09:19:41;;;;;;;23.35;3.15;;;8.50;99.90;;;;;;5032901;28;20029;-72
2023/12/20 09:22:07;;;;;;;26.38;3.67;;;8.40;99.90;;;;;;5032833;28;20084;-73
2023/12/20 09:24:32;;;;;;;20.15;2.92;;;8.40;99.90;;;;;;5031568;28;20482;-76
2023/12/20 09:26:58;;;;;;;15.63;2.22;;;8.30;99.90;;;;;;5032443;28;20034;-78
2023/12/20 09:29:24;;;;;;;28.48;3.45;;;8.40;99.90;;;;;;5031716;28;20037;-74
2023/12/20 09:31:50;;;;;;;25.85;3.60;;;8.40;99.90;;;;;;5032646;28;20017;-78
2023/12/20 09:34:16;;;;;;;20.23;2.42;;;8.30;99.90;;;;;;5032700;28;20037;-77
2023/12/20 09:36:46;;;;;;;18.75;2.50;;;8.40;99.90;;;;;;5032601;28;20426;-79
2023/12/20 09:39:14;;;;;;;22.77;3.72;;;8.40;99.90;;;;;;5032572;28;20120;-79
2023/12/20 09:41:44;;;;;;;19.85;3.28;;;8.40;99.90;;;;;;5032748;28;20109;-78
2023/12/20 09:44:15;;;;;;;25.85;3.33;;;8.30;99.90;;;;;;5031071;28;20064;-79
2023/12/20 09:46:44;;;;;;;18.27;2.53;;;8.30;99.90;;;;;;5032683;28;20109;-78
2023/12/20 09:49:11;;;;;;;22.70;2.60;;;8.30;99.90;;;;;;5032836;28;20090;-79
2023/12/20 09:51:37;;;;;;;28.73;3.28;;;8.30;99.90;;;;;;5032237;28;20116;-79
2023/12/20 09:54:05;;;;;;;18.90;2.72;;;8.30;99.90;;;;;;5030849;28;20044;-78
2023/12/20 09:56:31;;;;;;;18.98;2.17;;;8.30;99.90;;;;;;5031004;28;20480;-74
2023/12/20 09:58:57;;;;;;;18.95;2.92;;;8.30;99.90;;;;;;5030989;28;20036;-76
2023/12/20 10:01:23;;;;;;;20.25;3.15;;;8.30;99.90;;;;;;5032500;28;20101;-75
2023/12/20 10:03:53;;;;;;;23.88;2.42;;;8.30;99.90;;;;;;5032323;28;20057;-75
2023/12/20 10:06:19;;;;;;;20.85;2.45;;;8.30;99.90;;;;;;5034042;28;20061;-76
2023/12/20 10:08:45;;;;;;;19.40;2.83;;;8.30;99.90;;;;;;5033378;28;20048;-77
2023/12/20 10:11:10;;;;;;;22.55;3.28;;;8.30;99.90;;;;;;5031919;28;20025;-78
2023/12/20 10:13:41;;;;;;;18.42;3.67;;;8.30;99.90;;;;;;5034262;28;20037;-79
2023/12/20 10:16:10;;;;;;;24.40;3.22;;;8.30;99.90;;;;;;5031693;28;20089;-78
2023/12/20 10:18:35;;;;;;;21.33;2.95;;;8.40;99.90;;;;;;5033587;28;20040;-79
2023/12/20 10:21:03;;;;;;;21.45;3.35;;;8.40;99.90;;;;;;5031308;28;20124;-79
2023/12/20 10:23:29;;;;;;;21.77;2.90;;;8.40;99.90;;;;;;5032101;28;20034;-80
2023/12/20 10:26:00;;;;;;;20.67;3.10;;;8.40;99.90;;;;;;5031909;28;20041;-79
2023/12/20 10:28:29;;;;;;;24.17;3.85;;;8.40;99.90;;;;;;5031820;28;20041;-80
2023/12/20 10:30:57;;;;;;;22.80;2.88;;;8.40;99.90;;;;;;5032468;28;20095;-80
2023/12/20 10:33:28;;;;;;;23.38;2.88;;;8.50;99.90;;;;;;5031428;28;20030;-81
2023/12/20 10:35:55;;;;;;;23.58;2.95;;;8.50;99.90;;;;;;5032792;28;20041;-80
2023/12/20 10:38:21;;;;;;;26.25;3.30;;;8.50;99.90;;;;;;5035257;28;20128;-79
2023/12/20 10:40:47;;;;;;;23.00;3.58;;;8.60;99.90;;;;;;5035061;28;20025;-80
2023/12/20 10:43:14;;;;;;;24.88;3.10;;;8.60;99.90;;;;;;5036433;28;20044;-79
2023/12/20 10:45:42;;;;;;;26.58;3.75;;;8.60;99.90;;;;;;5035101;28;20060;-80
2023/12/20 10:48:10;;;;;;;22.05;3.00;;;8.70;99.90;;;;;;5038099;28;20398;-80
2023/12/20 10:50:38;;;;;;;25.35;3.90;;;8.70;99.90;;;;;;5036161;28;20132;-80
2023/12/20 10:53:04;;;;;;;25.30;3.08;;;8.70;99.90;;;;;;5036210;28;20040;-81
2023/12/20 10:55:30;;;;;;;22.77;3.22;;;8.70;99.90;;;;;;5036169;28;20025;-82
2023/12/20 10:58:08;;;;;;;23.08;2.92;;;8.70;99.90;;;;;;5036119;28;20061;-81
2023/12/20 11:00:43;;;;;;;24.55;3.45;;;8.70;99.90;;;;;;5035173;28;20532;-82
2023/12/20 11:03:11;;;;;;;24.25;3.78;;;8.80;99.90;;;;;;5035871;28;20029;-82
2023/12/20 11:05:39;;;;;;;25.23;3.95;;;8.80;99.90;;;;;;5036479;28;20061;-81
2023/12/20 11:08:19;;;;;;;22.02;2.90;;;8.80;99.90;;;;;;5035968;28;20025;-81
2023/12/20 11:10:56;;;;;;;22.58;3.03;;;8.80;99.90;;;;;;5035966;28;20029;-81
2023/12/20 11:13:57;;;;;;;20.38;2.97;;;8.90;99.90;;;;;;5036469;28;20040;-80
2023/12/20 11:16:23;;;;;;;16.88;2.65;;;8.90;99.90;;;;;;5013756;28;20083;-81
2023/12/20 11:18:50;;;;;;;24.13;2.63;;;8.90;99.90;;;;;;5035767;28;20045;-81
2023/12/20 11:21:16;;;;;;;16.90;2.65;;;9.00;99.90;;;;;;5036650;28;20037;-81
2023/12/20 11:23:42;;;;;;;23.95;3.33;;;9.00;99.90;;;;;;5018415;28;20095;-81
2023/12/20 11:26:08;;;;;;;25.95;3.53;;;9.00;99.90;;;;;;5035809;28;20072;-81
2023/12/20 11:28:34;;;;;;;23.83;3.60;;;9.10;99.90;;;;;;5035713;28;20061;-81
2023/12/20 11:31:01;;;;;;;17.08;2.75;;;9.10;99.90;;;;;;5035276;28;20026;-81
2023/12/20 11:33:31;;;;;;;25.80;3.85;;;9.10;99.90;;;;;;5036004;28;20148;-80
2023/12/20 11:35:57;;;;;;;24.15;3.25;;;9.10;99.90;;;;;;5037121;28;20030;-79
2023/12/20 11:38:24;;;;;;;15.38;2.95;;;9.10;99.90;;;;;;5038075;28;20043;-78
2023/12/20 11:40:53;;;;;;;19.17;3.10;;;9.10;99.90;;;;;;5036794;28;20072;-76
2023/12/20 11:43:38;;;;;;;23.38;3.08;;;9.20;99.90;;;;;;5033943;28;20460;-76
2023/12/20 11:46:11;;;;;;;23.73;2.90;;;9.20;99.90;;;;;;5034439;28;20033;-76
2023/12/20 11:48:38;;;;;;;;;;;9.20;99.90;;;;;;5035467;28;20021;-74
2023/12/20 11:51:10;;;;;;;20.13;2.78;;;9.20;99.90;;;;;;5035193;28;19932;-80
2023/12/20 11:53:36;;;;;;;21.58;3.10;;;9.30;99.90;;;;;;5035459;28;20033;-80
2023/12/20 11:56:03;;;;;;;14.98;2.05;;;9.30;99.90;;;;;;5035386;28;20034;-79
2023/12/20 11:58:29;;;;;;;24.45;2.63;;;9.30;99.90;;;;;;5034827;28;20022;-79
2023/12/20 12:00:55;;;;;;;16.05;2.33;;;9.30;99.90;;;;;;5034862;28;20482;-80
2023/12/20 12:03:21;;;;;;;16.70;1.60;;;9.30;99.90;;;;;;5035156;28;20088;-80
2023/12/20 12:05:50;;;;;;;18.85;3.28;;;9.40;99.90;;;;;;5034737;28;20041;-79
2023/12/20 12:08:17;;;;;;;16.40;2.05;;;9.40;99.90;;;;;;5035414;28;20033;-80
2023/12/20 12:10:43;;;;;;;15.15;1.98;;;9.40;99.90;;;;;;5033959;28;20072;-76
2023/12/20 12:13:09;;;;;;;22.55;3.15;;;9.40;99.90;;;;;;5034206;28;20360;-76
2023/12/20 12:15:36;;;;;;;16.42;1.80;;;9.40;99.90;;;;;;5034158;28;20045;-77
2023/12/20 12:18:02;;;;;;;17.55;2.53;;;9.50;99.90;;;;;;5034222;28;20162;-75
2023/12/20 12:20:28;;;;;;;16.02;1.75;;;9.50;99.90;;;;;;5034820;28;20108;-75
2023/12/20 12:23:00;;;;;;;20.95;2.53;;;9.50;99.90;;;;;;5033122;28;20123;-75
2023/12/20 12:25:27;;;;;;;11.07;1.83;;;9.50;99.90;;;;;;5034354;28;20356;-76
2023/12/20 12:27:52;;;;;;;15.98;1.73;;;9.50;99.90;;;;;;5034909;28;20040;-75
2023/12/20 12:30:18;;;;;;;12.88;2.58;;;9.60;99.90;;;;;;5033114;28;20025;-76
2023/12/20 12:32:44;;;;;;;14.02;2.72;;;9.50;99.90;;;;;;5034182;28;20065;-73
2023/12/20 12:35:11;;;;;;;13.60;2.20;;;9.60;99.90;;;;;;5034225;28;20038;-74
2023/12/20 12:37:41;;;;;;;18.02;1.92;;;9.60;99.90;;;;;;5033561;28;20112;-74
2023/12/20 12:40:11;;;;;;;19.48;2.45;;;9.60;99.90;;;;;;5035326;28;20029;-74
2023/12/20 12:42:40;;;;;;;15.07;1.80;;;9.70;99.90;;;;;;5034913;28;20095;-75
2023/12/20 12:45:06;;;;;;;12.68;1.75;;;9.60;99.90;;;;;;5034787;28;20037;-74